sensor_id;sensor_type;location;lat;lon;timestamp;P1;durP1;ratioP1;P2;durP2;ratioP2
62572;SDS011;48626;51.678;5.806;2023-03-19T00:01:53;4.00;;;2.30;;
62572;SDS011;48626;51.678;5.806;2023-03-19T00:04:19;2.80;;;2.00;;
62572;SDS011;48626;51.678;5.806;2023-03-19T00:06:46;4.15;;;2.00;;
62572;SDS011;48626;51.678;5.806;2023-03-19T00:09:11;4.82;;;2.30;;
62572;SDS011;48626;51.678;5.806;2023-03-19T00:11:37;3.22;;;2.22;;
62572;SDS011;48626;51.678;5.806;2023-03-19T00:14:03;4.93;;;2.40;;
62572;SDS011;48626;51.678;5.806;2023-03-19T00:16:29;4.75;;;2.50;;
62572;SDS011;48626;51.678;5.806;2023-03-19T00:18:55;3.90;;;2.30;;
62572;SDS011;48626;51.678;5.806;2023-03-19T00:21:21;8.02;;;2.50;;
62572;SDS011;48626;51.678;5.806;2023-03-19T00:23:47;3.95;;;2.72;;
62572;SDS011;48626;51.678;5.806;2023-03-19T00:26:12;4.43;;;2.38;;
62572;SDS011;48626;51.678;5.806;2023-03-19T00:28:38;4.90;;;2.58;;
62572;SDS011;48626;51.678;5.806;2023-03-19T00:31:22;3.67;;;2.30;;
62572;SDS011;48626;51.678;5.806;2023-03-19T00:33:49;4.15;;;2.42;;
62572;SDS011;48626;51.678;5.806;2023-03-19T00:36:15;3.92;;;2.10;;
62572;SDS011;48626;51.678;5.806;2023-03-19T00:38:41;3.60;;;2.10;;
62572;SDS011;48626;51.678;5.806;2023-03-19T00:41:08;5.82;;;2.53;;
62572;SDS011;48626;51.678;5.806;2023-03-19T00:43:34;5.18;;;2.10;;
62572;SDS011;48626;51.678;5.806;2023-03-19T00:46:01;4.13;;;2.35;;
62572;SDS011;48626;51.678;5.806;2023-03-19T00:48:27;2.83;;;2.15;;
62572;SDS011;48626;51.678;5.806;2023-03-19T00:50:53;4.38;;;2.40;;
62572;SDS011;48626;51.678;5.806;2023-03-19T00:53:19;5.03;;;2.40;;
62572;SDS011;48626;51.678;5.806;2023-03-19T00:55:45;4.05;;;2.40;;
62572;SDS011;48626;51.678;5.806;2023-03-19T00:58:11;5.07;;;2.65;;
62572;SDS011;48626;51.678;5.806;2023-03-19T01:00:37;4.72;;;2.50;;
62572;SDS011;48626;51.678;5.806;2023-03-19T01:03:03;5.38;;;2.88;;
62572;SDS011;48626;51.678;5.806;2023-03-19T01:05:30;4.07;;;2.42;;
62572;SDS011;48626;51.678;5.806;2023-03-19T01:07:58;4.65;;;2.80;;
62572;SDS011;48626;51.678;5.806;2023-03-19T01:10:23;4.82;;;2.80;;
62572;SDS011;48626;51.678;5.806;2023-03-19T01:12:50;5.45;;;2.80;;
62572;SDS011;48626;51.678;5.806;2023-03-19T01:15:16;4.18;;;2.88;;
62572;SDS011;48626;51.678;5.806;2023-03-19T01:17:42;4.20;;;2.80;;
62572;SDS011;48626;51.678;5.806;2023-03-19T01:20:08;6.63;;;3.03;;
62572;SDS011;48626;51.678;5.806;2023-03-19T01:22:38;5.82;;;3.03;;
62572;SDS011;48626;51.678;5.806;2023-03-19T01:25:05;6.40;;;3.30;;
62572;SDS011;48626;51.678;5.806;2023-03-19T01:27:32;5.70;;;3.00;;
62572;SDS011;48626;51.678;5.806;2023-03-19T01:29:58;4.78;;;2.95;;
62572;SDS011;48626;51.678;5.806;2023-03-19T01:32:23;8.15;;;3.88;;
62572;SDS011;48626;51.678;5.806;2023-03-19T01:34:49;10.93;;;3.50;;
62572;SDS011;48626;51.678;5.806;2023-03-19T01:37:15;7.38;;;3.50;;
62572;SDS011;48626;51.678;5.806;2023-03-19T01:39:41;5.95;;;3.25;;
62572;SDS011;48626;51.678;5.806;2023-03-19T01:42:06;5.22;;;3.35;;
62572;SDS011;48626;51.678;5.806;2023-03-19T01:44:33;5.85;;;3.50;;
62572;SDS011;48626;51.678;5.806;2023-03-19T01:47:02;4.47;;;3.17;;
62572;SDS011;48626;51.678;5.806;2023-03-19T01:49:32;5.13;;;3.70;;
62572;SDS011;48626;51.678;5.806;2023-03-19T01:51:59;5.95;;;3.67;;
62572;SDS011;48626;51.678;5.806;2023-03-19T01:54:28;7.47;;;3.60;;
62572;SDS011;48626;51.678;5.806;2023-03-19T01:57:01;5.43;;;3.55;;
62572;SDS011;48626;51.678;5.806;2023-03-19T01:59:41;6.93;;;3.95;;
62572;SDS011;48626;51.678;5.806;2023-03-19T02:07:27;5.40;;;3.80;;
62572;SDS011;48626;51.678;5.806;2023-03-19T02:09:55;6.43;;;3.88;;
62572;SDS011;48626;51.678;5.806;2023-03-19T02:12:22;5.22;;;3.67;;
62572;SDS011;48626;51.678;5.806;2023-03-19T02:14:48;12.02;;;4.35;;
62572;SDS011;48626;51.678;5.806;2023-03-19T02:17:13;9.15;;;4.50;;
62572;SDS011;48626;51.678;5.806;2023-03-19T02:22:32;7.85;;;4.55;;
62572;SDS011;48626;51.678;5.806;2023-03-19T02:27:38;8.77;;;4.65;;
62572;SDS011;48626;51.678;5.806;2023-03-19T02:30:17;8.00;;;4.40;;
62572;SDS011;48626;51.678;5.806;2023-03-19T02:32:43;7.78;;;4.47;;
62572;SDS011;48626;51.678;5.806;2023-03-19T02:35:09;6.43;;;4.40;;
62572;SDS011;48626;51.678;5.806;2023-03-19T02:37:34;8.02;;;5.00;;
62572;SDS011;48626;51.678;5.806;2023-03-19T02:40:07;7.53;;;4.78;;
62572;SDS011;48626;51.678;5.806;2023-03-19T02:42:40;8.00;;;4.63;;
62572;SDS011;48626;51.678;5.806;2023-03-19T02:45:06;7.50;;;5.05;;
62572;SDS011;48626;51.678;5.806;2023-03-19T02:47:32;6.60;;;4.45;;
62572;SDS011;48626;51.678;5.806;2023-03-19T02:49:58;7.15;;;4.63;;
62572;SDS011;48626;51.678;5.806;2023-03-19T02:52:24;8.82;;;4.55;;
62572;SDS011;48626;51.678;5.806;2023-03-19T02:54:49;8.30;;;5.03;;
62572;SDS011;48626;51.678;5.806;2023-03-19T02:57:15;10.07;;;4.95;;
62572;SDS011;48626;51.678;5.806;2023-03-19T02:59:41;10.90;;;4.85;;
62572;SDS011;48626;51.678;5.806;2023-03-19T03:02:06;7.68;;;4.78;;
62572;SDS011;48626;51.678;5.806;2023-03-19T03:04:32;10.10;;;4.95;;
62572;SDS011;48626;51.678;5.806;2023-03-19T03:07:01;6.93;;;4.63;;
62572;SDS011;48626;51.678;5.806;2023-03-19T03:09:27;7.70;;;4.57;;
62572;SDS011;48626;51.678;5.806;2023-03-19T03:11:53;6.22;;;4.45;;
62572;SDS011;48626;51.678;5.806;2023-03-19T03:14:18;9.57;;;5.10;;
62572;SDS011;48626;51.678;5.806;2023-03-19T03:16:44;6.30;;;4.38;;
62572;SDS011;48626;51.678;5.806;2023-03-19T03:19:10;7.38;;;4.85;;
62572;SDS011;48626;51.678;5.806;2023-03-19T03:21:36;8.23;;;4.97;;
62572;SDS011;48626;51.678;5.806;2023-03-19T03:24:02;7.28;;;4.80;;
62572;SDS011;48626;51.678;5.806;2023-03-19T03:26:28;8.43;;;4.75;;
62572;SDS011;48626;51.678;5.806;2023-03-19T03:28:53;9.50;;;4.65;;
62572;SDS011;48626;51.678;5.806;2023-03-19T03:31:19;7.85;;;4.68;;
62572;SDS011;48626;51.678;5.806;2023-03-19T03:33:45;8.20;;;4.75;;
62572;SDS011;48626;51.678;5.806;2023-03-19T03:36:11;8.73;;;4.70;;
62572;SDS011;48626;51.678;5.806;2023-03-19T03:38:37;6.93;;;4.60;;
62572;SDS011;48626;51.678;5.806;2023-03-19T03:41:04;6.28;;;4.80;;
62572;SDS011;48626;51.678;5.806;2023-03-19T03:43:29;9.15;;;4.65;;
62572;SDS011;48626;51.678;5.806;2023-03-19T03:45:55;8.10;;;4.50;;
62572;SDS011;48626;51.678;5.806;2023-03-19T03:48:21;6.82;;;4.50;;
62572;SDS011;48626;51.678;5.806;2023-03-19T03:50:47;7.65;;;4.60;;
62572;SDS011;48626;51.678;5.806;2023-03-19T03:53:13;7.53;;;4.32;;
62572;SDS011;48626;51.678;5.806;2023-03-19T03:55:39;6.65;;;4.07;;
62572;SDS011;48626;51.678;5.806;2023-03-19T03:58:05;7.70;;;4.57;;
62572;SDS011;48626;51.678;5.806;2023-03-19T04:00:31;8.32;;;4.40;;
62572;SDS011;48626;51.678;5.806;2023-03-19T04:02:56;6.55;;;4.45;;
62572;SDS011;48626;51.678;5.806;2023-03-19T04:05:23;7.38;;;4.35;;
62572;SDS011;48626;51.678;5.806;2023-03-19T04:07:49;7.10;;;4.40;;
62572;SDS011;48626;51.678;5.806;2023-03-19T04:10:14;8.23;;;4.47;;
62572;SDS011;48626;51.678;5.806;2023-03-19T04:12:40;8.15;;;4.53;;
62572;SDS011;48626;51.678;5.806;2023-03-19T04:15:06;6.47;;;4.43;;
62572;SDS011;48626;51.678;5.806;2023-03-19T04:17:34;9.68;;;4.65;;
62572;SDS011;48626;51.678;5.806;2023-03-19T04:20:02;10.50;;;5.03;;
62572;SDS011;48626;51.678;5.806;2023-03-19T04:22:28;8.93;;;5.07;;
62572;SDS011;48626;51.678;5.806;2023-03-19T04:24:54;7.18;;;4.68;;
62572;SDS011;48626;51.678;5.806;2023-03-19T04:27:20;8.73;;;4.60;;
62572;SDS011;48626;51.678;5.806;2023-03-19T04:29:46;7.03;;;4.40;;
62572;SDS011;48626;51.678;5.806;2023-03-19T04:32:12;9.38;;;4.60;;
62572;SDS011;48626;51.678;5.806;2023-03-19T04:34:38;7.13;;;4.55;;
62572;SDS011;48626;51.678;5.806;2023-03-19T04:37:04;7.65;;;4.90;;
62572;SDS011;48626;51.678;5.806;2023-03-19T04:39:30;7.57;;;4.70;;
62572;SDS011;48626;51.678;5.806;2023-03-19T04:41:56;9.40;;;4.82;;
62572;SDS011;48626;51.678;5.806;2023-03-19T04:44:21;9.18;;;4.70;;
62572;SDS011;48626;51.678;5.806;2023-03-19T04:46:47;7.43;;;5.00;;
62572;SDS011;48626;51.678;5.806;2023-03-19T04:49:13;9.75;;;5.50;;
62572;SDS011;48626;51.678;5.806;2023-03-19T04:51:39;8.25;;;5.30;;
62572;SDS011;48626;51.678;5.806;2023-03-19T04:54:06;6.68;;;4.65;;
62572;SDS011;48626;51.678;5.806;2023-03-19T04:56:32;8.25;;;5.18;;
62572;SDS011;48626;51.678;5.806;2023-03-19T04:58:57;10.02;;;5.20;;
62572;SDS011;48626;51.678;5.806;2023-03-19T05:01:23;10.13;;;5.30;;
62572;SDS011;48626;51.678;5.806;2023-03-19T05:03:51;7.40;;;4.80;;
62572;SDS011;48626;51.678;5.806;2023-03-19T05:06:16;8.57;;;4.93;;
62572;SDS011;48626;51.678;5.806;2023-03-19T05:08:43;10.30;;;5.40;;
62572;SDS011;48626;51.678;5.806;2023-03-19T05:11:10;9.90;;;4.88;;
62572;SDS011;48626;51.678;5.806;2023-03-19T05:13:36;7.72;;;4.82;;
62572;SDS011;48626;51.678;5.806;2023-03-19T05:16:01;8.45;;;5.13;;
62572;SDS011;48626;51.678;5.806;2023-03-19T05:18:27;9.73;;;5.55;;
62572;SDS011;48626;51.678;5.806;2023-03-19T05:20:53;8.88;;;5.60;;
62572;SDS011;48626;51.678;5.806;2023-03-19T05:23:19;8.25;;;5.53;;
62572;SDS011;48626;51.678;5.806;2023-03-19T05:25:46;7.60;;;4.78;;
62572;SDS011;48626;51.678;5.806;2023-03-19T05:28:13;8.20;;;5.32;;
62572;SDS011;48626;51.678;5.806;2023-03-19T05:30:39;9.07;;;5.68;;
62572;SDS011;48626;51.678;5.806;2023-03-19T05:33:05;9.25;;;5.70;;
62572;SDS011;48626;51.678;5.806;2023-03-19T05:35:31;8.45;;;5.60;;
62572;SDS011;48626;51.678;5.806;2023-03-19T05:37:57;8.65;;;5.25;;
62572;SDS011;48626;51.678;5.806;2023-03-19T05:40:22;11.90;;;5.70;;
62572;SDS011;48626;51.678;5.806;2023-03-19T05:42:49;11.60;;;5.88;;
62572;SDS011;48626;51.678;5.806;2023-03-19T05:45:15;7.93;;;5.53;;
62572;SDS011;48626;51.678;5.806;2023-03-19T05:47:41;9.18;;;5.63;;
62572;SDS011;48626;51.678;5.806;2023-03-19T05:50:09;10.45;;;5.35;;
62572;SDS011;48626;51.678;5.806;2023-03-19T05:52:35;8.13;;;5.80;;
62572;SDS011;48626;51.678;5.806;2023-03-19T05:55:01;9.82;;;6.10;;
62572;SDS011;48626;51.678;5.806;2023-03-19T05:57:28;10.80;;;5.90;;
62572;SDS011;48626;51.678;5.806;2023-03-19T05:59:54;11.38;;;6.65;;
62572;SDS011;48626;51.678;5.806;2023-03-19T06:02:20;11.15;;;6.43;;
62572;SDS011;48626;51.678;5.806;2023-03-19T06:04:46;9.70;;;6.32;;
62572;SDS011;48626;51.678;5.806;2023-03-19T06:07:11;11.05;;;6.40;;
62572;SDS011;48626;51.678;5.806;2023-03-19T06:09:37;10.48;;;6.57;;
62572;SDS011;48626;51.678;5.806;2023-03-19T06:12:03;11.13;;;6.45;;
62572;SDS011;48626;51.678;5.806;2023-03-19T06:14:28;10.23;;;6.30;;
62572;SDS011;48626;51.678;5.806;2023-03-19T06:16:54;11.20;;;6.72;;
62572;SDS011;48626;51.678;5.806;2023-03-19T06:19:20;11.18;;;6.82;;
62572;SDS011;48626;51.678;5.806;2023-03-19T06:21:46;13.77;;;7.60;;
62572;SDS011;48626;51.678;5.806;2023-03-19T06:24:12;12.57;;;7.63;;
62572;SDS011;48626;51.678;5.806;2023-03-19T06:26:38;11.20;;;7.53;;
62572;SDS011;48626;51.678;5.806;2023-03-19T06:29:03;10.15;;;7.50;;
62572;SDS011;48626;51.678;5.806;2023-03-19T06:31:29;12.45;;;7.63;;
62572;SDS011;48626;51.678;5.806;2023-03-19T06:33:55;12.77;;;7.88;;
62572;SDS011;48626;51.678;5.806;2023-03-19T06:36:20;11.95;;;8.25;;
62572;SDS011;48626;51.678;5.806;2023-03-19T06:38:46;11.73;;;8.00;;
62572;SDS011;48626;51.678;5.806;2023-03-19T06:41:11;12.07;;;7.97;;
62572;SDS011;48626;51.678;5.806;2023-03-19T06:43:37;15.38;;;8.50;;
62572;SDS011;48626;51.678;5.806;2023-03-19T06:46:06;25.40;;;8.82;;
62572;SDS011;48626;51.678;5.806;2023-03-19T06:48:33;12.10;;;8.43;;
62572;SDS011;48626;51.678;5.806;2023-03-19T06:50:59;13.68;;;8.88;;
62572;SDS011;48626;51.678;5.806;2023-03-19T06:53:25;12.05;;;8.75;;
62572;SDS011;48626;51.678;5.806;2023-03-19T06:55:52;15.30;;;9.30;;
62572;SDS011;48626;51.678;5.806;2023-03-19T06:58:18;13.70;;;8.90;;
62572;SDS011;48626;51.678;5.806;2023-03-19T07:00:44;14.30;;;8.95;;
62572;SDS011;48626;51.678;5.806;2023-03-19T07:03:09;18.60;;;9.25;;
62572;SDS011;48626;51.678;5.806;2023-03-19T07:05:36;13.43;;;9.25;;
62572;SDS011;48626;51.678;5.806;2023-03-19T07:08:01;15.15;;;8.77;;
62572;SDS011;48626;51.678;5.806;2023-03-19T07:10:27;12.95;;;8.68;;
62572;SDS011;48626;51.678;5.806;2023-03-19T07:12:53;15.13;;;9.48;;
62572;SDS011;48626;51.678;5.806;2023-03-19T07:15:19;14.40;;;9.15;;
62572;SDS011;48626;51.678;5.806;2023-03-19T07:17:45;14.25;;;8.85;;
62572;SDS011;48626;51.678;5.806;2023-03-19T07:20:12;14.68;;;10.15;;
62572;SDS011;48626;51.678;5.806;2023-03-19T07:22:38;13.82;;;9.75;;
62572;SDS011;48626;51.678;5.806;2023-03-19T07:25:05;13.85;;;9.02;;
62572;SDS011;48626;51.678;5.806;2023-03-19T07:27:31;20.67;;;10.55;;
62572;SDS011;48626;51.678;5.806;2023-03-19T07:29:57;15.20;;;10.30;;
62572;SDS011;48626;51.678;5.806;2023-03-19T07:32:23;14.35;;;10.18;;
62572;SDS011;48626;51.678;5.806;2023-03-19T07:34:49;20.98;;;11.38;;
62572;SDS011;48626;51.678;5.806;2023-03-19T07:37:14;17.77;;;11.68;;
62572;SDS011;48626;51.678;5.806;2023-03-19T07:39:40;17.40;;;11.63;;
62572;SDS011;48626;51.678;5.806;2023-03-19T07:42:06;18.13;;;11.73;;
62572;SDS011;48626;51.678;5.806;2023-03-19T07:44:32;20.20;;;11.70;;
62572;SDS011;48626;51.678;5.806;2023-03-19T07:46:57;17.20;;;11.55;;
62572;SDS011;48626;51.678;5.806;2023-03-19T07:49:23;17.35;;;12.02;;
62572;SDS011;48626;51.678;5.806;2023-03-19T07:51:49;16.25;;;11.30;;
62572;SDS011;48626;51.678;5.806;2023-03-19T07:54:15;17.48;;;11.63;;
62572;SDS011;48626;51.678;5.806;2023-03-19T07:56:40;16.00;;;11.18;;
62572;SDS011;48626;51.678;5.806;2023-03-19T07:59:06;19.17;;;11.95;;
62572;SDS011;48626;51.678;5.806;2023-03-19T08:01:32;20.08;;;11.57;;
62572;SDS011;48626;51.678;5.806;2023-03-19T08:03:57;14.93;;;10.40;;
62572;SDS011;48626;51.678;5.806;2023-03-19T08:06:23;17.60;;;10.70;;
62572;SDS011;48626;51.678;5.806;2023-03-19T08:08:49;15.43;;;10.73;;
62572;SDS011;48626;51.678;5.806;2023-03-19T08:11:14;16.00;;;10.35;;
62572;SDS011;48626;51.678;5.806;2023-03-19T08:13:41;16.75;;;10.50;;
62572;SDS011;48626;51.678;5.806;2023-03-19T08:16:07;21.55;;;9.48;;
62572;SDS011;48626;51.678;5.806;2023-03-19T08:18:33;14.13;;;8.95;;
62572;SDS011;48626;51.678;5.806;2023-03-19T08:20:59;17.48;;;9.15;;
62572;SDS011;48626;51.678;5.806;2023-03-19T08:23:24;17.77;;;9.13;;
62572;SDS011;48626;51.678;5.806;2023-03-19T08:25:51;20.48;;;9.27;;
62572;SDS011;48626;51.678;5.806;2023-03-19T08:28:17;18.95;;;9.18;;
62572;SDS011;48626;51.678;5.806;2023-03-19T08:30:44;15.50;;;9.57;;
62572;SDS011;48626;51.678;5.806;2023-03-19T08:33:10;20.88;;;9.95;;
62572;SDS011;48626;51.678;5.806;2023-03-19T08:35:36;21.02;;;9.73;;
62572;SDS011;48626;51.678;5.806;2023-03-19T08:38:01;21.42;;;10.05;;
62572;SDS011;48626;51.678;5.806;2023-03-19T08:40:27;17.33;;;10.20;;
62572;SDS011;48626;51.678;5.806;2023-03-19T08:42:53;23.42;;;10.48;;
62572;SDS011;48626;51.678;5.806;2023-03-19T08:45:20;18.23;;;10.15;;
62572;SDS011;48626;51.678;5.806;2023-03-19T08:47:46;20.20;;;10.15;;
62572;SDS011;48626;51.678;5.806;2023-03-19T08:50:12;15.43;;;8.38;;
62572;SDS011;48626;51.678;5.806;2023-03-19T08:52:39;16.35;;;8.65;;
62572;SDS011;48626;51.678;5.806;2023-03-19T08:55:05;18.95;;;8.45;;
62572;SDS011;48626;51.678;5.806;2023-03-19T08:57:32;19.90;;;8.70;;
62572;SDS011;48626;51.678;5.806;2023-03-19T08:59:58;20.52;;;8.40;;
62572;SDS011;48626;51.678;5.806;2023-03-19T09:02:24;16.77;;;7.80;;
62572;SDS011;48626;51.678;5.806;2023-03-19T09:04:49;14.23;;;8.10;;
62572;SDS011;48626;51.678;5.806;2023-03-19T09:07:15;17.42;;;8.48;;
62572;SDS011;48626;51.678;5.806;2023-03-19T09:09:41;18.98;;;8.65;;
62572;SDS011;48626;51.678;5.806;2023-03-19T09:12:09;15.98;;;8.20;;
62572;SDS011;48626;51.678;5.806;2023-03-19T09:14:37;16.20;;;8.27;;
62572;SDS011;48626;51.678;5.806;2023-03-19T09:17:04;22.52;;;9.10;;
62572;SDS011;48626;51.678;5.806;2023-03-19T09:19:30;16.85;;;8.63;;
62572;SDS011;48626;51.678;5.806;2023-03-19T09:21:56;13.63;;;8.13;;
62572;SDS011;48626;51.678;5.806;2023-03-19T09:24:21;18.88;;;8.65;;
62572;SDS011;48626;51.678;5.806;2023-03-19T09:26:47;17.40;;;8.20;;
62572;SDS011;48626;51.678;5.806;2023-03-19T09:29:13;15.18;;;7.97;;
62572;SDS011;48626;51.678;5.806;2023-03-19T09:31:40;17.30;;;8.55;;
62572;SDS011;48626;51.678;5.806;2023-03-19T09:34:06;21.27;;;8.90;;
62572;SDS011;48626;51.678;5.806;2023-03-19T09:36:33;20.52;;;9.23;;
62572;SDS011;48626;51.678;5.806;2023-03-19T09:38:59;19.27;;;8.85;;
62572;SDS011;48626;51.678;5.806;2023-03-19T09:44:13;16.08;;;8.02;;
62572;SDS011;48626;51.678;5.806;2023-03-19T09:47:00;14.18;;;7.20;;
62572;SDS011;48626;51.678;5.806;2023-03-19T09:49:48;13.05;;;7.53;;
62572;SDS011;48626;51.678;5.806;2023-03-19T09:54:58;17.17;;;5.60;;
62572;SDS011;48626;51.678;5.806;2023-03-19T09:57:29;16.50;;;5.88;;
62572;SDS011;48626;51.678;5.806;2023-03-19T09:59:57;11.02;;;5.38;;
62572;SDS011;48626;51.678;5.806;2023-03-19T10:02:37;17.10;;;5.45;;
62572;SDS011;48626;51.678;5.806;2023-03-19T10:07:46;16.45;;;5.97;;
62572;SDS011;48626;51.678;5.806;2023-03-19T10:10:30;16.60;;;5.82;;
62572;SDS011;48626;51.678;5.806;2023-03-19T10:13:15;22.33;;;6.40;;
62572;SDS011;48626;51.678;5.806;2023-03-19T10:15:43;18.63;;;5.85;;
62572;SDS011;48626;51.678;5.806;2023-03-19T10:18:16;14.52;;;5.72;;
62572;SDS011;48626;51.678;5.806;2023-03-19T10:20:59;17.05;;;5.50;;
62572;SDS011;48626;51.678;5.806;2023-03-19T10:26:16;14.65;;;5.35;;
62572;SDS011;48626;51.678;5.806;2023-03-19T10:34:17;14.65;;;5.25;;
62572;SDS011;48626;51.678;5.806;2023-03-19T10:39:47;9.98;;;5.10;;
62572;SDS011;48626;51.678;5.806;2023-03-19T10:42:33;15.05;;;5.55;;
62572;SDS011;48626;51.678;5.806;2023-03-19T10:47:58;11.50;;;5.07;;
62572;SDS011;48626;51.678;5.806;2023-03-19T10:55:54;18.73;;;5.20;;
62572;SDS011;48626;51.678;5.806;2023-03-19T10:58:21;14.60;;;4.90;;
62572;SDS011;48626;51.678;5.806;2023-03-19T11:00:54;14.57;;;4.65;;
62572;SDS011;48626;51.678;5.806;2023-03-19T11:03:34;11.10;;;4.95;;
62572;SDS011;48626;51.678;5.806;2023-03-19T11:06:03;12.18;;;4.65;;
62572;SDS011;48626;51.678;5.806;2023-03-19T11:08:41;14.45;;;4.68;;
62572;SDS011;48626;51.678;5.806;2023-03-19T11:11:21;11.68;;;4.45;;
62572;SDS011;48626;51.678;5.806;2023-03-19T11:13:48;11.60;;;4.30;;
62572;SDS011;48626;51.678;5.806;2023-03-19T11:16:14;14.93;;;5.13;;
62572;SDS011;48626;51.678;5.806;2023-03-19T11:18:40;11.23;;;4.50;;
62572;SDS011;48626;51.678;5.806;2023-03-19T11:21:07;12.82;;;4.78;;
62572;SDS011;48626;51.678;5.806;2023-03-19T11:23:46;10.20;;;4.78;;
62572;SDS011;48626;51.678;5.806;2023-03-19T11:26:18;17.42;;;5.10;;
62572;SDS011;48626;51.678;5.806;2023-03-19T11:28:48;14.65;;;5.10;;
62572;SDS011;48626;51.678;5.806;2023-03-19T11:34:10;14.70;;;4.85;;
62572;SDS011;48626;51.678;5.806;2023-03-19T11:45:07;19.90;;;4.72;;
62572;SDS011;48626;51.678;5.806;2023-03-19T11:53:26;11.75;;;3.85;;
62572;SDS011;48626;51.678;5.806;2023-03-19T12:01:13;13.63;;;4.30;;
62572;SDS011;48626;51.678;5.806;2023-03-19T12:09:55;11.80;;;4.30;;
62572;SDS011;48626;51.678;5.806;2023-03-19T12:12:38;15.55;;;4.32;;
62572;SDS011;48626;51.678;5.806;2023-03-19T12:34:01;12.40;;;5.00;;
62572;SDS011;48626;51.678;5.806;2023-03-19T12:36:40;14.90;;;5.38;;
62572;SDS011;48626;51.678;5.806;2023-03-19T12:39:23;12.40;;;5.63;;
62572;SDS011;48626;51.678;5.806;2023-03-19T12:41:53;12.65;;;6.38;;
62572;SDS011;48626;51.678;5.806;2023-03-19T12:44:27;11.23;;;5.50;;
62572;SDS011;48626;51.678;5.806;2023-03-19T12:47:13;13.48;;;4.90;;
62572;SDS011;48626;51.678;5.806;2023-03-19T12:49:53;11.18;;;4.32;;
62572;SDS011;48626;51.678;5.806;2023-03-19T12:52:41;8.18;;;4.15;;
62572;SDS011;48626;51.678;5.806;2023-03-19T12:55:20;10.25;;;3.85;;
62572;SDS011;48626;51.678;5.806;2023-03-19T12:57:53;10.80;;;4.88;;
62572;SDS011;48626;51.678;5.806;2023-03-19T13:00:37;10.52;;;4.47;;
62572;SDS011;48626;51.678;5.806;2023-03-19T13:03:52;10.02;;;4.18;;
62572;SDS011;48626;51.678;5.806;2023-03-19T13:23:09;29.42;;;25.30;;
62572;SDS011;48626;51.678;5.806;2023-03-19T13:25:48;39.08;;;32.00;;
62572;SDS011;48626;51.678;5.806;2023-03-19T13:28:21;17.73;;;11.30;;
62572;SDS011;48626;51.678;5.806;2023-03-19T13:30:57;19.95;;;12.13;;
62572;SDS011;48626;51.678;5.806;2023-03-19T13:33:25;19.67;;;11.32;;
62572;SDS011;48626;51.678;5.806;2023-03-19T13:35:53;17.73;;;9.48;;
62572;SDS011;48626;51.678;5.806;2023-03-19T13:38:26;12.98;;;7.53;;
62572;SDS011;48626;51.678;5.806;2023-03-19T13:41:04;17.42;;;9.20;;
62572;SDS011;48626;51.678;5.806;2023-03-19T13:43:51;15.45;;;8.18;;
62572;SDS011;48626;51.678;5.806;2023-03-19T13:53:54;20.58;;;11.40;;
62572;SDS011;48626;51.678;5.806;2023-03-19T13:59:41;41.08;;;21.67;;
62572;SDS011;48626;51.678;5.806;2023-03-19T14:05:06;34.15;;;18.33;;
62572;SDS011;48626;51.678;5.806;2023-03-19T14:07:41;39.45;;;21.92;;
62572;SDS011;48626;51.678;5.806;2023-03-19T14:12:41;28.70;;;15.43;;
62572;SDS011;48626;51.678;5.806;2023-03-19T14:22:39;34.47;;;22.20;;
62572;SDS011;48626;51.678;5.806;2023-03-19T14:25:21;25.00;;;15.32;;
62572;SDS011;48626;51.678;5.806;2023-03-19T14:27:49;26.88;;;15.45;;
62572;SDS011;48626;51.678;5.806;2023-03-19T14:32:56;42.75;;;24.10;;
62572;SDS011;48626;51.678;5.806;2023-03-19T14:35:26;25.70;;;14.85;;
62572;SDS011;48626;51.678;5.806;2023-03-19T14:37:56;44.47;;;35.27;;
62572;SDS011;48626;51.678;5.806;2023-03-19T14:40:23;60.92;;;43.08;;
62572;SDS011;48626;51.678;5.806;2023-03-19T14:45:48;15.00;;;10.65;;
62572;SDS011;48626;51.678;5.806;2023-03-19T14:53:57;15.27;;;11.07;;
62572;SDS011;48626;51.678;5.806;2023-03-19T14:56:56;16.75;;;9.57;;
62572;SDS011;48626;51.678;5.806;2023-03-19T14:59:22;23.88;;;13.52;;
62572;SDS011;48626;51.678;5.806;2023-03-19T15:01:48;28.45;;;17.60;;
62572;SDS011;48626;51.678;5.806;2023-03-19T15:04:16;26.95;;;16.50;;
62572;SDS011;48626;51.678;5.806;2023-03-19T15:06:55;27.93;;;17.07;;
62572;SDS011;48626;51.678;5.806;2023-03-19T15:09:24;29.88;;;15.57;;
62572;SDS011;48626;51.678;5.806;2023-03-19T15:14:41;80.15;;;54.28;;
62572;SDS011;48626;51.678;5.806;2023-03-19T15:17:46;20.58;;;12.60;;
62572;SDS011;48626;51.678;5.806;2023-03-19T15:20:17;16.58;;;10.30;;
62572;SDS011;48626;51.678;5.806;2023-03-19T15:22:55;17.90;;;11.25;;
62572;SDS011;48626;51.678;5.806;2023-03-19T15:25:24;23.40;;;12.85;;
62572;SDS011;48626;51.678;5.806;2023-03-19T15:28:10;26.77;;;17.60;;
62572;SDS011;48626;51.678;5.806;2023-03-19T15:30:38;28.70;;;13.02;;
62572;SDS011;48626;51.678;5.806;2023-03-19T15:33:15;21.95;;;10.52;;
62572;SDS011;48626;51.678;5.806;2023-03-19T15:35:50;43.28;;;31.92;;
62572;SDS011;48626;51.678;5.806;2023-03-19T15:38:22;25.73;;;16.60;;
62572;SDS011;48626;51.678;5.806;2023-03-19T15:40:49;41.95;;;28.38;;
62572;SDS011;48626;51.678;5.806;2023-03-19T15:43:15;38.78;;;24.60;;
62572;SDS011;48626;51.678;5.806;2023-03-19T15:45:44;34.88;;;20.38;;
62572;SDS011;48626;51.678;5.806;2023-03-19T15:48:31;31.65;;;18.10;;
62572;SDS011;48626;51.678;5.806;2023-03-19T15:51:00;37.20;;;25.17;;
62572;SDS011;48626;51.678;5.806;2023-03-19T15:53:30;20.10;;;13.13;;
62572;SDS011;48626;51.678;5.806;2023-03-19T15:55:58;25.20;;;15.00;;
62572;SDS011;48626;51.678;5.806;2023-03-19T15:58:27;25.73;;;16.42;;
62572;SDS011;48626;51.678;5.806;2023-03-19T16:00:55;27.48;;;17.45;;
62572;SDS011;48626;51.678;5.806;2023-03-19T16:03:24;29.45;;;20.58;;
62572;SDS011;48626;51.678;5.806;2023-03-19T16:06:04;33.33;;;17.52;;
62572;SDS011;48626;51.678;5.806;2023-03-19T16:08:36;30.13;;;18.63;;
62572;SDS011;48626;51.678;5.806;2023-03-19T16:11:33;25.27;;;16.27;;
62572;SDS011;48626;51.678;5.806;2023-03-19T16:14:08;21.25;;;14.25;;
62572;SDS011;48626;51.678;5.806;2023-03-19T16:16:45;22.88;;;14.48;;
62572;SDS011;48626;51.678;5.806;2023-03-19T16:21:57;31.15;;;18.75;;
62572;SDS011;48626;51.678;5.806;2023-03-19T16:24:24;21.27;;;11.60;;
62572;SDS011;48626;51.678;5.806;2023-03-19T16:26:58;33.72;;;17.85;;
62572;SDS011;48626;51.678;5.806;2023-03-19T16:29:42;27.25;;;14.23;;
62572;SDS011;48626;51.678;5.806;2023-03-19T16:34:39;22.67;;;11.90;;
62572;SDS011;48626;51.678;5.806;2023-03-19T16:40:00;24.17;;;13.40;;
62572;SDS011;48626;51.678;5.806;2023-03-19T16:45:16;31.52;;;16.20;;
62572;SDS011;48626;51.678;5.806;2023-03-19T16:47:56;22.88;;;12.73;;
62572;SDS011;48626;51.678;5.806;2023-03-19T16:50:27;25.40;;;12.25;;
62572;SDS011;48626;51.678;5.806;2023-03-19T16:52:54;25.70;;;15.45;;
62572;SDS011;48626;51.678;5.806;2023-03-19T17:00:36;20.80;;;12.10;;
62572;SDS011;48626;51.678;5.806;2023-03-19T17:03:02;20.35;;;12.20;;
62572;SDS011;48626;51.678;5.806;2023-03-19T17:05:28;24.88;;;13.63;;
62572;SDS011;48626;51.678;5.806;2023-03-19T17:07:54;25.77;;;13.60;;
62572;SDS011;48626;51.678;5.806;2023-03-19T17:10:21;29.95;;;14.93;;
62572;SDS011;48626;51.678;5.806;2023-03-19T17:12:49;25.05;;;13.48;;
62572;SDS011;48626;51.678;5.806;2023-03-19T17:15:20;19.08;;;11.77;;
62572;SDS011;48626;51.678;5.806;2023-03-19T17:17:46;21.43;;;13.43;;
62572;SDS011;48626;51.678;5.806;2023-03-19T17:20:14;16.63;;;9.10;;
62572;SDS011;48626;51.678;5.806;2023-03-19T17:22:45;22.70;;;13.10;;